createdAt,value
2023-04-29T00:01:33.788Z,4.93
2023-04-29T00:06:33.441Z,5.03
2023-04-29T00:11:33.100Z,5.43
2023-04-29T00:16:35.356Z,5.78
2023-04-29T00:21:34.850Z,4.75
2023-04-29T00:26:37.377Z,6.15
2023-04-29T00:31:37.767Z,5.55
2023-04-29T00:36:37.669Z,6.25
2023-04-29T00:41:35.121Z,5.90
2023-04-29T00:46:36.843Z,5.60
2023-04-29T00:51:44.413Z,5.63
2023-04-29T00:56:50.592Z,5.18
2023-04-29T01:01:54.229Z,5.10
2023-04-29T01:07:14.672Z,5.35
2023-04-29T01:12:42.311Z,6.22
2023-04-29T01:18:09.062Z,11.68
2023-04-29T01:23:14.234Z,7.53
2023-04-29T01:34:03.978Z,5.95
2023-04-29T01:39:14.384Z,6.20
2023-04-29T01:44:21.506Z,6.65
2023-04-29T01:49:32.580Z,6.57
2023-04-29T01:54:42.839Z,6.45
2023-04-29T01:59:47.176Z,6.60
2023-04-29T02:05:16.361Z,6.50
2023-04-29T02:10:25.802Z,6.85
2023-04-29T02:15:33.132Z,6.57
2023-04-29T02:20:40.454Z,8.35
2023-04-29T02:25:47.298Z,11.73
2023-04-29T02:30:51.946Z,10.38
2023-04-29T02:35:53.955Z,10.57
2023-04-29T02:40:52.326Z,10.18
2023-04-29T02:45:57.402Z,10.02
2023-04-29T02:50:56.976Z,9.02
2023-04-29T02:55:55.942Z,7.97
2023-04-29T03:00:59.231Z,7.72
2023-04-29T03:05:58.277Z,6.05
2023-04-29T03:11:00.496Z,6.28
2023-04-29T03:16:02.856Z,5.75
2023-04-29T03:21:00.356Z,5.93
2023-04-29T03:25:59.345Z,6.57
2023-04-29T03:30:59.351Z,6.82
2023-04-29T03:35:58.162Z,7.72
2023-04-29T03:41:13.472Z,7.88
2023-04-29T03:46:12.360Z,7.65
2023-04-29T03:51:13.632Z,7.78
2023-04-29T03:56:17.492Z,6.85
2023-04-29T04:01:17.443Z,7.18
2023-04-29T04:06:17.940Z,8.43
2023-04-29T04:11:18.120Z,7.43
2023-04-29T04:16:20.673Z,7.00
2023-04-29T04:21:19.396Z,5.93
2023-04-29T04:26:26.183Z,5.95
2023-04-29T04:31:46.279Z,6.70
2023-04-29T04:36:48.168Z,6.50
2023-04-29T04:41:47.431Z,7.03
2023-04-29T04:46:51.139Z,6.15
2023-04-29T04:52:03.416Z,8.05
2023-04-29T04:57:06.344Z,7.40
2023-04-29T05:02:05.917Z,6.00
2023-04-29T05:07:03.832Z,5.18
2023-04-29T05:12:17.887Z,7.13
2023-04-29T05:17:18.543Z,4.32
2023-04-29T05:22:19.254Z,4.18
2023-04-29T05:27:24.412Z,5.53
2023-04-29T05:45:22.627Z,13.40
2023-04-29T05:50:37.712Z,5.97
2023-04-29T05:55:39.490Z,12.32
2023-04-29T06:01:12.203Z,3.75
2023-04-29T06:06:12.249Z,4.10
2023-04-29T06:11:17.896Z,4.40
2023-04-29T06:16:18.415Z,4.20
2023-04-29T06:21:30.000Z,3.38
2023-04-29T06:26:38.088Z,5.22
2023-04-29T06:31:55.302Z,3.85
2023-04-29T06:37:08.762Z,3.65
2023-04-29T06:42:41.325Z,2.80
2023-04-29T06:48:18.260Z,2.50
2023-04-29T06:53:19.934Z,4.82
2023-04-29T07:04:06.398Z,4.78
2023-04-29T07:09:05.071Z,3.03
2023-04-29T07:14:19.178Z,4.88
2023-04-29T07:19:23.492Z,2.88
2023-04-29T07:24:35.515Z,2.88
2023-04-29T07:29:37.701Z,2.50
2023-04-29T07:34:48.711Z,2.60
2023-04-29T07:40:00.101Z,3.20
2023-04-29T07:45:00.184Z,3.00
2023-04-29T07:49:58.907Z,3.08
2023-04-29T07:55:08.859Z,3.92
2023-04-29T08:00:13.603Z,2.65
2023-04-29T08:05:22.935Z,2.58
2023-04-29T08:10:33.299Z,2.50
2023-04-29T08:15:49.634Z,2.15
2023-04-29T08:21:13.195Z,2.90
2023-04-29T08:26:15.696Z,3.05
2023-04-29T08:31:30.852Z,2.40
2023-04-29T08:36:33.977Z,2.60
2023-04-29T08:41:42.089Z,3.25
2023-04-29T08:46:45.915Z,2.58
2023-04-29T08:51:58.434Z,2.50
2023-04-29T08:57:04.332Z,2.65
2023-04-29T09:02:07.498Z,4.03
2023-04-29T09:07:19.318Z,2.50
2023-04-29T09:12:26.486Z,3.28
2023-04-29T09:17:45.012Z,3.05
2023-04-29T09:23:01.271Z,2.50
2023-04-29T09:28:19.932Z,2.25
2023-04-29T09:33:37.066Z,2.72
2023-04-29T09:38:44.109Z,2.72
2023-04-29T09:44:10.015Z,3.13
2023-04-29T09:49:25.073Z,2.58
2023-04-29T09:54:29.324Z,2.92
2023-04-29T09:59:45.770Z,3.33
2023-04-29T10:04:55.544Z,2.15
2023-04-29T10:10:00.974Z,2.35
2023-04-29T10:15:06.265Z,2.80
2023-04-29T10:20:20.251Z,1.75
2023-04-29T10:25:26.874Z,2.55
2023-04-29T10:30:38.820Z,2.20
2023-04-29T10:35:51.048Z,1.98
2023-04-29T10:40:51.343Z,2.05
2023-04-29T10:46:19.949Z,1.83
2023-04-29T10:51:33.329Z,2.42
2023-04-29T10:56:55.977Z,2.60
2023-04-29T11:02:04.451Z,2.15
2023-04-29T11:07:10.763Z,2.85
2023-04-29T11:12:22.735Z,2.22
2023-04-29T11:17:52.572Z,2.40
2023-04-29T11:23:00.051Z,2.40
2023-04-29T11:28:11.047Z,2.40
2023-04-29T11:33:17.415Z,2.35
2023-04-29T11:38:24.774Z,2.65
2023-04-29T11:49:15.436Z,2.50
2023-04-29T11:54:19.075Z,2.53
2023-04-29T11:59:27.161Z,2.50
2023-04-29T12:04:35.683Z,2.38
2023-04-29T12:09:45.859Z,2.40
2023-04-29T12:14:59.669Z,2.40
2023-04-29T12:20:13.376Z,2.15
2023-04-29T12:25:20.323Z,2.50
2023-04-29T12:35:47.214Z,2.15
2023-04-29T12:40:56.378Z,2.40
2023-04-29T12:46:19.360Z,2.42
2023-04-29T12:51:45.229Z,2.92
2023-04-29T12:57:10.765Z,1.95
2023-04-29T13:08:03.196Z,2.17
2023-04-29T13:13:16.552Z,2.78
2023-04-29T13:18:58.994Z,2.22
2023-04-29T13:24:25.631Z,2.20
2023-04-29T13:34:42.810Z,2.20
2023-04-29T13:39:56.413Z,2.15
2023-04-29T13:51:09.630Z,2.28
2023-04-29T13:56:55.075Z,1.50
2023-04-29T14:06:35.880Z,2.10
2023-04-29T14:12:08.640Z,2.08
2023-04-29T14:17:28.814Z,2.45
2023-04-29T14:22:34.276Z,2.00
2023-04-29T14:27:40.015Z,2.30
2023-04-29T14:32:51.460Z,2.75
2023-04-29T14:37:52.942Z,2.13
2023-04-29T14:43:12.080Z,2.38
2023-04-29T14:48:33.618Z,2.25
2023-04-29T14:53:41.481Z,2.03
2023-04-29T14:58:47.055Z,2.60
2023-04-29T15:03:55.137Z,2.10
2023-04-29T15:09:12.943Z,2.50
2023-04-29T15:14:17.095Z,3.85
2023-04-29T15:25:28.201Z,2.17
2023-04-29T15:30:48.095Z,2.60
2023-04-29T15:35:51.551Z,3.00
2023-04-29T15:46:24.413Z,2.67
2023-04-29T15:51:27.713Z,2.60
2023-04-29T15:56:39.274Z,2.88
2023-04-29T16:01:45.151Z,3.47
2023-04-29T16:06:49.934Z,2.90
2023-04-29T16:11:50.712Z,4.60
2023-04-29T16:16:49.844Z,3.88
2023-04-29T16:21:57.449Z,4.80
2023-04-29T16:27:01.769Z,3.85
2023-04-29T16:32:08.866Z,4.53
2023-04-29T16:37:12.842Z,5.90
2023-04-29T16:42:26.108Z,4.07
2023-04-29T16:47:30.913Z,5.18
2023-04-29T16:52:34.754Z,4.13
2023-04-29T16:57:34.039Z,3.72
2023-04-29T17:02:36.719Z,4.18
2023-04-29T17:07:38.555Z,3.42
2023-04-29T17:12:51.024Z,4.05
2023-04-29T17:17:54.645Z,4.63
2023-04-29T17:22:53.295Z,4.20
2023-04-29T17:28:01.422Z,3.28
2023-04-29T17:33:14.352Z,3.00
2023-04-29T17:38:15.771Z,3.08
2023-04-29T17:43:32.820Z,3.90
2023-04-29T17:48:48.534Z,3.53
2023-04-29T17:53:58.877Z,4.07
2023-04-29T18:04:38.941Z,6.25
2023-04-29T18:09:41.329Z,5.32
2023-04-29T18:14:51.081Z,5.20
2023-04-29T18:20:05.141Z,5.45
2023-04-29T18:25:09.311Z,4.35
2023-04-29T18:30:16.021Z,4.22
2023-04-29T18:35:25.376Z,5.00
2023-04-29T18:40:28.894Z,5.80
2023-04-29T18:45:32.151Z,7.25
2023-04-29T18:50:44.568Z,7.68
2023-04-29T18:56:04.965Z,7.82
2023-04-29T19:01:20.673Z,6.72
2023-04-29T19:06:27.225Z,7.68
2023-04-29T19:11:34.473Z,6.03
2023-04-29T19:16:38.882Z,5.93
2023-04-29T19:22:06.172Z,6.47
2023-04-29T19:27:14.078Z,6.22
2023-04-29T19:32:14.502Z,6.18
2023-04-29T19:37:47.100Z,6.00
2023-04-29T19:43:04.068Z,6.50
2023-04-29T19:54:01.167Z,6.85
2023-04-29T19:59:01.791Z,6.83
2023-04-29T20:04:16.604Z,5.82
2023-04-29T20:09:26.854Z,5.47
2023-04-29T20:15:12.951Z,4.38
2023-04-29T20:20:21.759Z,4.20
2023-04-29T20:25:22.940Z,4.30
2023-04-29T20:30:24.151Z,3.90
2023-04-29T20:41:16.805Z,9.07
2023-04-29T20:46:26.042Z,7.13
2023-04-29T20:51:28.990Z,8.07
2023-04-29T20:56:27.904Z,9.27
2023-04-29T21:01:42.605Z,7.05
2023-04-29T21:06:42.792Z,6.13
2023-04-29T21:11:45.372Z,5.75
2023-04-29T21:16:47.559Z,6.72
2023-04-29T21:21:55.672Z,6.00
2023-04-29T21:26:57.649Z,6.38
2023-04-29T21:31:58.814Z,6.72
2023-04-29T21:36:59.434Z,6.05
2023-04-29T21:41:57.130Z,6.05
2023-04-29T21:47:01.865Z,7.38
2023-04-29T21:52:03.297Z,6.25
2023-04-29T21:57:07.276Z,6.20
2023-04-29T22:02:23.320Z,6.07
2023-04-29T22:07:26.385Z,5.90
2023-04-29T22:12:27.670Z,5.45
2023-04-29T22:17:26.338Z,5.60
2023-04-29T22:22:26.715Z,5.45
2023-04-29T22:27:37.800Z,5.82
2023-04-29T22:38:10.072Z,5.65
2023-04-29T22:43:14.412Z,5.50
2023-04-29T22:48:14.457Z,5.30
2023-04-29T22:53:18.703Z,4.47
2023-04-29T22:58:25.851Z,5.28
2023-04-29T23:03:29.492Z,5.75
2023-04-29T23:08:38.844Z,4.63
2023-04-29T23:13:43.552Z,5.32
2023-04-29T23:18:45.162Z,4.70
2023-04-29T23:23:47.254Z,4.50
2023-04-29T23:28:50.003Z,4.97
2023-04-29T23:33:54.155Z,5.05
2023-04-29T23:38:52.847Z,5.65
2023-04-29T23:44:01.675Z,5.03
2023-04-29T23:49:06.058Z,4.75
2023-04-29T23:54:16.864Z,4.72
2023-04-29T23:59:16.042Z,4.82
